Accueil
METAR-TAF:

METAR-TAF

Aéroports :

Base aérienne 279 Châteaudun

Châteaudun, France

latitude: 48-03N, longitude: 001-23E, altitude: 134 m

Observation

Le bulletin a été fait il y a 10 minutes, à 23:30 UTC
Vent 2 kt de direction variable
Température 14°C
Humidité 72%
Pression 1025 hPa
Visibilité 10 km ou plus
pas de nuages en-dessous de 1500 mètres et pas de cumulonimbus.

METAR: LFOC 232330Z AUTO VRB02KT CAVOK 14/09 Q1025

Heure: 01:40 (23:40 UTC)

Prévision

Le bulletin a été fait il y a 33 heures et 40 minutes, à 14:00 UTC
Prévision valable du 22 à 15 UTC au 23 à 15 UTC
Vent 10 kt de nord/nord-est
Visibilité 10 km ou plus
pas de nuages en-dessous de 1500 mètres et pas de cumulonimbus.
Temporairement
du 22 à 15 UTC au 22 à 18 UTC
Vent 15 kt de est/nord-est avec des rafales jusqu'à 25 kt

TAF: LFOC 221400Z 2215/2315 03010KT CAVOK TEMPO 2215/2218 06015G25KT

Observations et prévisions météorologiques de plus de 4000 aéroports (messages METAR et TAF).

Les stations disponibles sont représentées par des disques jaunes et rouges sur la carte.

Passer la souris dessus pour voir le nom de la station.

Cliquer dessus pour voir les observations et prévisions météorologiques.

Pour changer de carte: cliquez sur les boutons verts avec une croix noire pour zoomer, sur le bouton vert avec un tiret pour effectuer un zoom arrière, ou sur les flèches vertes pour les cartes adjacentes.


METAR-TAF: